createdAt,value
2018-07-04T00:01:07.034Z,13.20
2018-07-04T00:03:45.875Z,13.20
2018-07-04T00:06:24.736Z,13.10
2018-07-04T00:09:05.044Z,13.10
2018-07-04T00:11:43.900Z,13.00
2018-07-04T00:14:22.804Z,13.00
2018-07-04T00:17:01.809Z,13.00
2018-07-04T00:19:40.768Z,13.00
2018-07-04T00:22:19.843Z,13.00
2018-07-04T00:27:31.896Z,12.90
2018-07-04T00:30:10.836Z,13.00
2018-07-04T00:32:49.723Z,12.90
2018-07-04T00:35:28.720Z,12.90
2018-07-04T00:38:07.716Z,12.80
2018-07-04T00:40:46.724Z,12.80
2018-07-04T00:43:25.616Z,12.70
2018-07-04T00:46:04.591Z,12.80
2018-07-04T00:48:43.516Z,12.80
2018-07-04T00:51:22.547Z,12.80
2018-07-04T00:54:01.540Z,12.60
2018-07-04T00:56:40.600Z,12.60
2018-07-04T00:59:19.596Z,12.50
2018-07-04T01:01:58.540Z,12.70
2018-07-04T01:04:37.552Z,12.60
2018-07-04T01:07:16.568Z,12.60
2018-07-04T01:09:55.464Z,12.60
2018-07-04T01:12:34.445Z,12.50
2018-07-04T01:15:13.424Z,12.30
2018-07-04T01:17:52.544Z,12.40
2018-07-04T01:20:37.384Z,12.40
2018-07-04T01:23:16.317Z,12.40
2018-07-04T01:25:55.205Z,12.30
2018-07-04T01:28:40.000Z,12.30
2018-07-04T01:31:18.940Z,12.30
2018-07-04T01:33:58.032Z,12.30
2018-07-04T01:36:36.948Z,12.20
2018-07-04T01:39:15.984Z,12.20
2018-07-04T01:41:54.989Z,12.20
2018-07-04T01:44:33.974Z,12.20
2018-07-04T01:47:12.911Z,12.30
2018-07-04T01:49:52.012Z,12.20
2018-07-04T01:52:30.929Z,12.20
2018-07-04T01:55:09.981Z,12.00
2018-07-04T01:57:48.971Z,12.00
2018-07-04T02:00:28.988Z,12.00
2018-07-04T02:03:07.985Z,12.00
2018-07-04T02:05:47.064Z,11.90
2018-07-04T02:08:26.098Z,11.90
2018-07-04T02:11:05.045Z,11.90
2018-07-04T02:13:43.971Z,12.00
2018-07-04T02:16:22.972Z,12.00
2018-07-04T02:19:01.951Z,12.00
2018-07-04T02:21:40.907Z,11.90
2018-07-04T02:24:19.860Z,11.90
2018-07-04T02:26:58.848Z,11.90
2018-07-04T02:29:37.803Z,11.90
2018-07-04T02:32:16.772Z,11.90
2018-07-04T02:34:58.835Z,11.90
2018-07-04T02:37:37.969Z,11.90
2018-07-04T02:40:17.020Z,11.90
2018-07-04T02:42:55.922Z,11.90
2018-07-04T02:45:35.261Z,11.80
2018-07-04T02:48:14.182Z,11.90
2018-07-04T02:50:53.232Z,11.90
2018-07-04T02:53:32.116Z,12.00
2018-07-04T02:56:11.169Z,11.90
2018-07-04T02:58:50.012Z,11.90
2018-07-04T03:01:29.104Z,11.90
2018-07-04T03:04:08.024Z,11.90
2018-07-04T03:06:47.184Z,11.90
2018-07-04T03:09:26.075Z,11.90
2018-07-04T03:12:05.120Z,11.90
2018-07-04T03:14:44.267Z,11.90
2018-07-04T03:17:23.636Z,11.90
2018-07-04T03:20:02.536Z,11.90
2018-07-04T03:22:41.556Z,12.00
2018-07-04T03:25:20.567Z,12.00
2018-07-04T03:27:59.732Z,11.90
2018-07-04T03:30:38.717Z,11.90
2018-07-04T03:33:17.790Z,11.70
2018-07-04T03:35:56.754Z,11.70
2018-07-04T03:41:09.181Z,11.80
2018-07-04T03:43:48.445Z,11.80
2018-07-04T03:46:27.340Z,11.90
2018-07-04T03:49:06.435Z,11.90
2018-07-04T03:51:45.429Z,11.90
2018-07-04T03:54:24.388Z,11.90
2018-07-04T03:57:03.281Z,11.90
2018-07-04T03:59:42.613Z,12.00
2018-07-04T04:02:21.413Z,11.90
2018-07-04T04:05:00.459Z,12.10
2018-07-04T04:07:39.448Z,12.10
2018-07-04T04:10:18.489Z,12.00
2018-07-04T04:12:57.488Z,12.00
2018-07-04T04:15:36.496Z,12.10
2018-07-04T04:18:15.512Z,12.20
2018-07-04T04:20:54.520Z,12.30
2018-07-04T04:23:33.378Z,12.40
2018-07-04T04:26:12.372Z,12.40
2018-07-04T04:28:51.284Z,12.40
2018-07-04T04:31:30.200Z,12.60
2018-07-04T04:34:09.140Z,12.70
2018-07-04T04:36:48.107Z,12.80
2018-07-04T04:39:27.128Z,12.70
2018-07-04T04:42:06.126Z,12.80
2018-07-04T04:44:45.104Z,12.60
2018-07-04T04:47:24.159Z,12.70
2018-07-04T04:50:03.319Z,12.90
2018-07-04T04:52:42.240Z,13.00
2018-07-04T04:55:21.279Z,12.90
2018-07-04T04:58:00.135Z,13.20
2018-07-04T05:00:39.072Z,13.20
2018-07-04T05:03:17.966Z,13.20
2018-07-04T05:05:56.996Z,13.20
2018-07-04T05:08:36.060Z,13.30
2018-07-04T05:11:15.087Z,13.30
2018-07-04T05:13:54.033Z,13.40
2018-07-04T05:16:32.989Z,13.40
2018-07-04T05:19:11.834Z,13.60
2018-07-04T05:21:50.951Z,13.70
2018-07-04T05:24:29.820Z,13.80
2018-07-04T05:27:08.823Z,13.90
2018-07-04T05:29:47.923Z,14.00
2018-07-04T05:32:26.864Z,14.00
2018-07-04T05:35:05.830Z,14.20
2018-07-04T05:37:45.521Z,14.30
2018-07-04T05:40:24.521Z,14.40
2018-07-04T05:43:03.737Z,14.60
2018-07-04T05:45:42.528Z,14.70
2018-07-04T05:48:21.513Z,14.70
2018-07-04T05:51:00.453Z,14.80
2018-07-04T05:53:39.491Z,15.00
2018-07-04T05:56:18.256Z,15.20
2018-07-04T05:58:57.276Z,15.30
2018-07-04T06:01:36.326Z,15.50
2018-07-04T06:04:15.263Z,15.60
2018-07-04T06:06:54.425Z,15.60
2018-07-04T06:09:33.460Z,15.70
2018-07-04T06:12:12.501Z,15.70
2018-07-04T06:14:51.429Z,15.90
2018-07-04T06:17:30.674Z,16.40
2018-07-04T06:20:09.630Z,16.40
2018-07-04T06:22:48.560Z,16.50
2018-07-04T06:25:27.384Z,16.50
2018-07-04T06:28:06.421Z,16.50
2018-07-04T06:30:45.392Z,16.50
2018-07-04T06:33:24.708Z,16.60
2018-07-04T06:36:03.472Z,16.70
2018-07-04T06:38:29.963Z,16.80
2018-07-04T06:40:56.408Z,17.00
2018-07-04T06:43:23.165Z,17.40
2018-07-04T06:45:49.645Z,17.50
2018-07-04T06:48:16.097Z,17.50
2018-07-04T06:50:42.579Z,17.70
2018-07-04T06:53:09.086Z,18.00
2018-07-04T06:55:35.553Z,18.50
2018-07-04T06:58:02.010Z,18.70
2018-07-04T07:00:28.482Z,18.90
2018-07-04T07:03:07.412Z,19.20
2018-07-04T07:05:46.320Z,19.60
2018-07-04T07:08:25.256Z,19.90
2018-07-04T07:11:19.172Z,20.30
2018-07-04T07:13:58.098Z,20.50
2018-07-04T07:16:37.037Z,20.20
2018-07-04T07:19:15.913Z,20.30
2018-07-04T07:21:54.970Z,20.40
2018-07-04T07:24:33.980Z,20.40
2018-07-04T07:27:12.851Z,20.40
2018-07-04T07:29:51.821Z,20.50
2018-07-04T07:32:30.789Z,20.40
2018-07-04T07:35:09.784Z,20.70
2018-07-04T07:37:48.888Z,21.00
2018-07-04T07:40:27.780Z,21.40
2018-07-04T07:43:07.423Z,21.30
2018-07-04T07:45:46.356Z,21.30
2018-07-04T07:48:25.344Z,21.20
2018-07-04T07:51:04.363Z,21.20
2018-07-04T07:53:43.349Z,21.40
2018-07-04T07:56:22.280Z,21.50
2018-07-04T07:59:01.308Z,21.60
2018-07-04T08:01:40.300Z,22.00
2018-07-04T08:04:19.271Z,22.50
2018-07-04T08:06:58.220Z,22.80
2018-07-04T08:09:37.195Z,23.10
2018-07-04T08:12:16.662Z,23.30
2018-07-04T08:14:55.455Z,23.00
2018-07-04T08:17:34.431Z,23.20
2018-07-04T08:20:13.515Z,23.50
2018-07-04T08:22:52.624Z,23.50
2018-07-04T08:25:31.391Z,23.50
2018-07-04T08:28:10.418Z,23.60
2018-07-04T08:30:49.345Z,23.50
2018-07-04T08:33:28.264Z,23.40
2018-07-04T08:36:07.296Z,23.50
2018-07-04T08:38:46.235Z,23.70
2018-07-04T08:41:25.225Z,24.10
2018-07-04T08:44:04.180Z,24.20
2018-07-04T08:46:43.090Z,24.60
2018-07-04T08:49:22.033Z,24.50
2018-07-04T08:52:01.071Z,24.20
2018-07-04T08:54:40.052Z,24.10
2018-07-04T08:57:18.776Z,24.10
2018-07-04T08:59:57.687Z,24.10
2018-07-04T09:02:36.513Z,24.30
2018-07-04T09:05:15.486Z,24.40
2018-07-04T09:07:54.481Z,24.30
2018-07-04T09:10:33.384Z,24.30
2018-07-04T09:13:12.369Z,24.30
2018-07-04T09:15:51.533Z,24.20
2018-07-04T09:18:30.461Z,24.30
2018-07-04T09:21:09.410Z,24.30
2018-07-04T09:23:48.307Z,24.20
2018-07-04T09:26:27.433Z,24.30
2018-07-04T09:29:06.335Z,24.70
2018-07-04T09:31:45.376Z,24.70
2018-07-04T09:34:24.352Z,24.80
2018-07-04T09:37:03.436Z,25.50
2018-07-04T09:39:42.348Z,25.60
2018-07-04T09:42:21.392Z,26.10
2018-07-04T09:45:00.386Z,26.70
2018-07-04T09:47:39.353Z,27.30
2018-07-04T09:50:18.412Z,27.50
2018-07-04T09:52:57.292Z,27.60
2018-07-04T09:55:36.226Z,27.90
2018-07-04T09:58:15.304Z,27.90
2018-07-04T10:00:59.996Z,28.10
2018-07-04T10:03:39.134Z,27.90
2018-07-04T10:06:17.973Z,27.60
2018-07-04T10:08:56.940Z,27.60
2018-07-04T10:11:35.987Z,27.60
2018-07-04T10:14:14.981Z,28.20
2018-07-04T10:16:54.028Z,28.40
2018-07-04T10:19:33.070Z,28.60
2018-07-04T10:22:11.955Z,28.30
2018-07-04T10:24:50.905Z,29.20
2018-07-04T10:27:29.768Z,28.70
2018-07-04T10:30:08.823Z,28.20
2018-07-04T10:32:47.784Z,28.20
2018-07-04T10:35:26.796Z,28.70
2018-07-04T10:38:05.819Z,29.40
2018-07-04T10:40:44.661Z,29.40
2018-07-04T10:43:23.628Z,29.40
2018-07-04T10:46:02.657Z,29.90
2018-07-04T10:48:41.661Z,30.10
2018-07-04T10:51:20.476Z,30.10
2018-07-04T10:53:59.292Z,30.00
2018-07-04T10:56:38.302Z,29.60
2018-07-04T10:59:17.287Z,29.20
2018-07-04T11:01:56.582Z,29.40
2018-07-04T11:04:35.548Z,29.20
2018-07-04T11:07:14.521Z,28.80
2018-07-04T11:09:53.498Z,28.90
2018-07-04T11:12:32.571Z,28.80
2018-07-04T11:15:11.491Z,28.60
2018-07-04T11:17:50.503Z,29.10
2018-07-04T11:20:29.436Z,29.30
2018-07-04T11:23:08.529Z,28.70
2018-07-04T11:25:47.508Z,28.90
2018-07-04T11:28:26.533Z,28.80
2018-07-04T11:31:05.519Z,29.10
2018-07-04T11:33:44.512Z,29.00
2018-07-04T11:36:23.529Z,28.90
2018-07-04T11:39:02.880Z,28.50
2018-07-04T11:41:41.836Z,28.20
2018-07-04T11:44:20.821Z,27.90
2018-07-04T11:46:47.280Z,28.00
2018-07-04T11:49:13.748Z,27.70
2018-07-04T11:51:40.198Z,27.90
2018-07-04T11:54:06.676Z,28.00
2018-07-04T11:56:33.180Z,27.60
2018-07-04T11:58:59.578Z,27.40
2018-07-04T12:01:26.054Z,26.90
2018-07-04T12:04:05.139Z,25.70
2018-07-04T12:06:44.136Z,25.20
2018-07-04T12:09:10.608Z,23.20
2018-07-04T12:11:37.088Z,21.80
2018-07-04T12:16:30.493Z,18.10
2018-07-04T12:18:56.960Z,16.80
2018-07-04T12:21:23.411Z,16.40
2018-07-04T12:23:49.886Z,16.40
2018-07-04T12:26:16.356Z,16.70
2018-07-04T12:28:42.876Z,16.50
2018-07-04T12:31:09.360Z,16.70
2018-07-04T12:33:35.804Z,16.80
2018-07-04T12:36:02.279Z,16.70
2018-07-04T12:38:28.739Z,16.40
2018-07-04T12:40:55.233Z,16.60
2018-07-04T12:43:21.728Z,16.50
2018-07-04T12:45:48.168Z,16.70
2018-07-04T12:48:14.609Z,16.80
2018-07-04T12:50:41.059Z,16.80
2018-07-04T12:53:07.516Z,16.90
2018-07-04T12:55:46.516Z,17.00
2018-07-04T12:58:25.465Z,17.10
2018-07-04T13:01:04.524Z,16.80
2018-07-04T13:03:43.506Z,16.90
2018-07-04T13:08:54.724Z,16.80
2018-07-04T13:11:33.620Z,17.10
2018-07-04T13:14:12.524Z,17.10
2018-07-04T13:19:24.958Z,17.10
2018-07-04T13:22:04.101Z,17.20
2018-07-04T13:24:43.414Z,17.30
2018-07-04T13:27:22.484Z,17.40
2018-07-04T13:30:01.326Z,17.40
2018-07-04T13:32:40.504Z,17.60
2018-07-04T13:35:19.364Z,17.60
2018-07-04T13:37:58.484Z,17.70
2018-07-04T13:40:37.373Z,17.70
2018-07-04T13:43:16.494Z,17.70
2018-07-04T13:48:28.721Z,17.90
2018-07-04T13:51:07.827Z,18.00
2018-07-04T13:53:46.855Z,18.30
2018-07-04T13:56:25.832Z,18.60
2018-07-04T13:59:05.188Z,18.90
2018-07-04T14:01:44.022Z,19.00
2018-07-04T14:04:23.134Z,19.10
2018-07-04T14:07:02.549Z,19.30
2018-07-04T14:09:41.596Z,20.00
2018-07-04T14:12:20.601Z,20.40
2018-07-04T14:14:59.648Z,20.50
2018-07-04T14:17:38.697Z,20.80
2018-07-04T14:20:17.724Z,20.90
2018-07-04T14:22:56.800Z,21.40
2018-07-04T14:25:35.741Z,21.60
2018-07-04T14:28:15.267Z,22.00
2018-07-04T14:30:54.417Z,22.30
2018-07-04T14:33:33.380Z,22.40
2018-07-04T14:36:12.581Z,22.80
2018-07-04T14:38:51.488Z,22.90
2018-07-04T14:41:30.492Z,23.00
2018-07-04T14:44:09.434Z,23.30
2018-07-04T14:46:48.398Z,23.80
2018-07-04T14:49:27.257Z,23.90
2018-07-04T14:52:06.669Z,24.00
2018-07-04T14:54:45.782Z,24.50
2018-07-04T14:57:24.889Z,24.90
2018-07-04T15:00:03.937Z,24.90
2018-07-04T15:02:42.987Z,24.50
2018-07-04T15:05:21.966Z,24.90
2018-07-04T15:10:34.380Z,24.20
2018-07-04T15:13:13.386Z,23.80
2018-07-04T15:15:52.661Z,22.20
2018-07-04T15:18:32.550Z,20.40
2018-07-04T15:21:11.490Z,19.20
2018-07-04T15:23:50.607Z,19.20
2018-07-04T15:26:29.531Z,18.50
2018-07-04T15:29:08.563Z,18.10
2018-07-04T15:31:47.525Z,17.60
2018-07-04T15:34:26.427Z,17.50
2018-07-04T15:37:05.544Z,17.40
2018-07-04T15:39:44.400Z,17.40
2018-07-04T15:42:23.516Z,17.30
2018-07-04T15:45:02.453Z,17.50
2018-07-04T15:47:41.381Z,17.50
2018-07-04T15:50:20.346Z,17.50
2018-07-04T15:52:59.450Z,17.70
2018-07-04T15:58:11.780Z,17.80
2018-07-04T16:00:50.623Z,17.80
2018-07-04T16:03:29.736Z,17.80
2018-07-04T16:06:08.664Z,17.90
2018-07-04T16:08:47.639Z,18.30
2018-07-04T16:11:26.780Z,18.50
2018-07-04T16:14:05.637Z,18.60
2018-07-04T16:16:44.852Z,18.10
2018-07-04T16:19:23.695Z,18.20
2018-07-04T16:22:02.852Z,18.70
2018-07-04T16:24:41.981Z,18.80
2018-07-04T16:27:21.025Z,18.50
2018-07-04T16:30:00.100Z,18.90
2018-07-04T16:32:39.263Z,19.50
2018-07-04T16:35:18.097Z,19.10
2018-07-04T16:37:56.900Z,18.70
2018-07-04T16:40:35.799Z,18.70
2018-07-04T16:43:15.168Z,18.70
2018-07-04T16:45:54.300Z,19.00
2018-07-04T16:48:33.513Z,19.30
2018-07-04T16:51:12.566Z,19.30
2018-07-04T16:53:51.888Z,19.30
2018-07-04T16:56:30.916Z,19.30
2018-07-04T16:59:10.240Z,19.40
2018-07-04T17:01:49.216Z,19.50
2018-07-04T17:04:28.233Z,19.50
2018-07-04T17:07:07.220Z,19.50
2018-07-04T17:09:46.373Z,19.60
2018-07-04T17:12:25.521Z,19.60
2018-07-04T17:15:04.636Z,19.20
2018-07-04T17:17:44.483Z,18.90
2018-07-04T17:20:23.500Z,19.40
2018-07-04T17:23:02.659Z,19.60
2018-07-04T17:25:41.925Z,19.90
2018-07-04T17:28:20.804Z,19.80
2018-07-04T17:30:59.932Z,19.70
2018-07-04T17:33:39.264Z,19.50
2018-07-04T17:36:18.224Z,19.60
2018-07-04T17:38:57.164Z,19.50
2018-07-04T17:41:35.989Z,19.50
2018-07-04T17:44:15.045Z,19.50
2018-07-04T17:46:54.036Z,19.60
2018-07-04T17:49:33.070Z,19.50
2018-07-04T17:52:12.065Z,19.60
2018-07-04T17:54:51.104Z,19.50
2018-07-04T17:57:30.128Z,19.40
2018-07-04T18:00:09.188Z,19.20
2018-07-04T18:02:48.146Z,19.30
2018-07-04T18:05:26.976Z,19.50
2018-07-04T18:08:06.151Z,19.30
2018-07-04T18:10:45.180Z,19.40
2018-07-04T18:13:24.116Z,19.20
2018-07-04T18:16:03.150Z,19.30
2018-07-04T18:18:42.560Z,19.30
2018-07-04T18:21:24.661Z,18.70
2018-07-04T18:24:04.843Z,18.50
2018-07-04T18:29:16.948Z,18.60
2018-07-04T18:31:55.920Z,18.40
2018-07-04T18:34:35.472Z,18.10
2018-07-04T18:37:14.382Z,18.30
2018-07-04T18:39:53.423Z,18.20
2018-07-04T18:42:32.693Z,18.10
2018-07-04T18:45:11.566Z,17.90
2018-07-04T18:47:50.676Z,18.10
2018-07-04T18:50:29.705Z,18.00
2018-07-04T18:53:08.750Z,18.00
2018-07-04T18:55:47.829Z,18.10
2018-07-04T18:58:27.234Z,17.90
2018-07-04T19:01:06.058Z,17.50
2018-07-04T19:03:45.186Z,17.60
2018-07-04T19:06:24.102Z,17.60
2018-07-04T19:09:04.132Z,17.40
2018-07-04T19:11:42.992Z,17.60
2018-07-04T19:14:22.169Z,17.60
2018-07-04T19:17:01.350Z,17.50
2018-07-04T19:19:40.687Z,17.30
2018-07-04T19:22:19.568Z,17.30
2018-07-04T19:24:58.547Z,17.40
2018-07-04T19:27:37.436Z,17.10
2018-07-04T19:30:16.484Z,17.30
2018-07-04T19:32:55.516Z,17.30
2018-07-04T19:35:35.036Z,17.30
2018-07-04T19:38:14.200Z,17.40
2018-07-04T19:40:53.248Z,17.20
2018-07-04T19:43:32.365Z,17.10
2018-07-04T19:46:11.351Z,16.90
2018-07-04T19:48:50.375Z,16.80
2018-07-04T19:51:29.292Z,16.70
2018-07-04T19:54:08.276Z,16.80
2018-07-04T19:56:47.297Z,16.90
2018-07-04T19:59:26.296Z,16.90
2018-07-04T20:02:05.432Z,17.10
2018-07-04T20:04:44.555Z,17.00
2018-07-04T20:07:23.391Z,16.70
2018-07-04T20:10:02.382Z,16.60
2018-07-04T20:12:41.640Z,16.70
2018-07-04T20:15:21.085Z,16.70
2018-07-04T20:18:00.013Z,16.70
2018-07-04T20:20:39.224Z,16.50
2018-07-04T20:23:18.486Z,16.60
2018-07-04T20:25:57.380Z,16.60
2018-07-04T20:28:36.349Z,16.60
2018-07-04T20:31:15.341Z,16.60
2018-07-04T20:33:54.308Z,16.40
2018-07-04T20:36:33.304Z,16.40
2018-07-04T20:39:12.237Z,16.30
2018-07-04T20:41:51.216Z,16.50
2018-07-04T20:44:30.136Z,16.50
2018-07-04T20:47:09.054Z,16.50
2018-07-04T20:49:48.013Z,16.40
2018-07-04T20:52:27.069Z,16.30
2018-07-04T20:55:06.121Z,16.00
2018-07-04T20:57:45.144Z,16.10
2018-07-04T21:00:24.127Z,15.90
2018-07-04T21:03:03.224Z,15.80
2018-07-04T21:05:42.108Z,16.00
2018-07-04T21:08:21.144Z,15.90
2018-07-04T21:11:00.293Z,15.90
2018-07-04T21:13:39.359Z,15.90
2018-07-04T21:16:18.387Z,15.80
2018-07-04T21:18:57.445Z,15.80
2018-07-04T21:21:36.432Z,15.80
2018-07-04T21:24:15.403Z,15.80
2018-07-04T21:26:54.340Z,15.70
2018-07-04T21:29:33.359Z,15.50
2018-07-04T21:32:12.404Z,15.60
2018-07-04T21:34:51.340Z,15.60
2018-07-04T21:37:30.332Z,15.50
2018-07-04T21:40:09.376Z,15.30
2018-07-04T21:42:48.271Z,15.10
2018-07-04T21:45:27.500Z,15.10
2018-07-04T21:48:06.448Z,15.00
2018-07-04T21:50:45.428Z,15.10
2018-07-04T21:53:24.505Z,15.30
2018-07-04T21:56:03.628Z,15.30
2018-07-04T21:58:42.671Z,15.10
2018-07-04T22:01:21.776Z,15.10
2018-07-04T22:04:00.928Z,15.10
2018-07-04T22:06:39.797Z,15.00
2018-07-04T22:09:18.788Z,14.90
2018-07-04T22:11:57.828Z,14.80
2018-07-04T22:14:36.820Z,14.70
2018-07-04T22:17:15.908Z,14.60
2018-07-04T22:19:54.905Z,14.80
2018-07-04T22:22:34.004Z,14.90
2018-07-04T22:25:12.813Z,14.90
2018-07-04T22:27:51.816Z,14.90
2018-07-04T22:30:30.808Z,14.50
2018-07-04T22:33:09.836Z,14.50
2018-07-04T22:35:48.928Z,14.40
2018-07-04T22:38:28.899Z,14.50
2018-07-04T22:41:07.839Z,14.70
2018-07-04T22:43:46.876Z,14.70
2018-07-04T22:46:25.869Z,14.60
2018-07-04T22:49:04.908Z,14.60
2018-07-04T22:51:44.004Z,14.40
2018-07-04T22:54:22.932Z,14.40
2018-07-04T22:57:01.792Z,14.30
2018-07-04T22:59:40.728Z,14.30
2018-07-04T23:02:19.722Z,14.20
2018-07-04T23:04:58.784Z,14.20
2018-07-04T23:07:37.776Z,14.30
2018-07-04T23:10:16.841Z,14.40
2018-07-04T23:12:55.913Z,14.40
2018-07-04T23:15:34.922Z,14.30
2018-07-04T23:18:14.024Z,14.10
2018-07-04T23:20:53.033Z,14.00
2018-07-04T23:23:32.056Z,14.00
2018-07-04T23:26:11.111Z,14.10
2018-07-04T23:28:50.213Z,14.00
2018-07-04T23:31:29.124Z,14.00
2018-07-04T23:36:41.260Z,13.80
2018-07-04T23:39:20.252Z,14.00
2018-07-04T23:41:59.189Z,14.10
2018-07-04T23:44:38.142Z,13.90
2018-07-04T23:47:17.101Z,13.80
2018-07-04T23:49:56.120Z,13.90
2018-07-04T23:52:35.128Z,13.70
2018-07-04T23:55:14.080Z,13.70
2018-07-04T23:57:53.169Z,13.70
